Time;durP1;ratioP1;P1;durP2;ratioP2;P2;SDS_P1;SDS_P2;PMS_P1;PMS_P2;Temp;Humidity;BMP_temperature;BMP_pressure;BME280_temperature;BME280_humidity;BME280_pressure;Samples;Min_cycle;Max_cycle;Signal;HPM_P1;HPM_P2
2022/10/08 00:01:37;;;;;;;4.80;2.90;;;18.50;99.90;;;;;;5029553;28;20128;-71
2022/10/08 00:04:04;;;;;;;6.03;3.05;;;18.50;99.90;;;;;;5035233;28;20090;-71
2022/10/08 00:06:32;;;;;;;3.58;2.63;;;18.50;99.90;;;;;;5058805;28;20048;-70
2022/10/08 00:09:04;;;;;;;6.80;4.53;;;18.50;99.90;;;;;;5035039;28;20560;-71
2022/10/08 00:11:34;;;;;;;6.90;4.22;;;18.50;99.90;;;;;;5049792;28;20075;-70
2022/10/08 00:14:02;;;;;;;7.65;5.47;;;18.40;99.90;;;;;;5051749;28;20068;-71
2022/10/08 00:16:33;;;;;;;8.95;5.15;;;18.40;99.90;;;;;;5021087;28;20056;-71
2022/10/08 00:19:05;;;;;;;8.40;5.00;;;18.40;99.90;;;;;;5069339;28;20045;-70
2022/10/08 00:21:35;;;;;;;6.78;4.70;;;18.40;99.90;;;;;;5050020;28;20056;-70
2022/10/08 00:24:05;;;;;;;10.07;5.15;;;18.30;99.90;;;;;;5030555;28;20132;-72
2022/10/08 00:26:35;;;;;;;10.73;6.55;;;18.30;99.90;;;;;;5043455;28;20157;-70
2022/10/08 00:29:07;;;;;;;12.57;5.75;;;18.30;99.90;;;;;;5011195;28;20094;-72
2022/10/08 00:31:39;;;;;;;10.55;6.50;;;18.30;99.90;;;;;;5022266;28;20044;-70
2022/10/08 00:34:10;;;;;;;9.05;5.72;;;18.20;99.90;;;;;;5017183;28;20083;-70
2022/10/08 00:36:40;;;;;;;6.47;4.60;;;18.20;99.90;;;;;;5034928;28;20056;-71
2022/10/08 00:39:15;;;;;;;7.35;4.20;;;18.20;99.90;;;;;;5057332;28;20063;-70
2022/10/08 00:41:45;;;;;;;7.83;4.17;;;18.10;99.90;;;;;;5051167;28;20048;-70
2022/10/08 00:44:52;;;;;;;7.53;4.10;;;18.10;99.90;;;;;;5061728;28;20517;-77
2022/10/08 00:47:33;;;;;;;7.83;4.17;;;18.10;99.90;;;;;;5058026;28;20626;-71
2022/10/08 00:50:05;;;;;;;7.72;4.47;;;18.10;99.90;;;;;;5032346;28;20052;-72
2022/10/08 00:52:36;;;;;;;7.05;4.75;;;18.10;99.90;;;;;;5026844;28;20060;-71
2022/10/08 00:55:06;;;;;;;6.68;3.95;;;18.10;99.90;;;;;;5050900;28;20416;-70
2022/10/08 00:57:35;;;;;;;5.53;3.70;;;18.00;99.90;;;;;;5065630;28;20052;-72
2022/10/08 01:00:10;;;;;;;6.43;4.07;;;18.00;99.90;;;;;;5027610;28;20041;-72
2022/10/08 01:02:39;;;;;;;7.23;4.10;;;18.00;99.90;;;;;;5024792;28;20087;-70
2022/10/08 01:05:08;;;;;;;6.97;4.55;;;18.00;99.90;;;;;;5013523;28;20048;-70
2022/10/08 01:07:58;;;;;;;6.55;4.40;;;18.00;99.90;;;;;;5059247;28;20229;-73
2022/10/08 01:10:48;;;;;;;6.80;3.92;;;18.00;99.90;;;;;;5010214;28;20076;-71
2022/10/08 01:13:53;;;;;;;8.35;4.88;;;18.00;99.90;;;;;;5047329;28;20045;-72
2022/10/08 01:16:31;;;;;;;7.85;3.80;;;18.00;99.90;;;;;;5030348;28;20131;-70
2022/10/08 01:19:12;;;;;;;8.10;4.60;;;18.00;99.90;;;;;;5031217;28;20057;-69
2022/10/08 01:22:28;;;;;;;6.97;4.68;;;18.00;99.90;;;;;;5032738;28;20177;-70
2022/10/08 01:28:05;;;;;;;8.32;4.65;;;18.00;99.90;;;;;;5031677;28;20176;-70
2022/10/08 01:30:38;;;;;;;7.20;5.05;;;18.00;99.90;;;;;;5014817;28;20057;-70
2022/10/08 01:33:21;;;;;;;5.80;3.67;;;18.00;99.90;;;;;;5013993;28;20111;-71
2022/10/08 01:35:56;;;;;;;9.65;4.85;;;17.90;99.90;;;;;;5046878;28;20310;-72
2022/10/08 01:38:28;;;;;;;7.65;4.53;;;17.90;99.90;;;;;;5047514;28;20036;-71
2022/10/08 01:40:59;;;;;;;8.23;4.72;;;17.90;99.90;;;;;;5029500;28;20040;-73
2022/10/08 01:43:32;;;;;;;7.07;4.82;;;17.90;99.90;;;;;;5012492;28;20813;-70
2022/10/08 01:46:16;;;;;;;8.27;4.70;;;17.90;99.90;;;;;;5029051;28;20174;-70
2022/10/08 01:48:49;;;;;;;7.63;5.43;;;17.90;99.90;;;;;;5048932;28;20068;-71
2022/10/08 01:51:22;;;;;;;7.15;4.53;;;17.90;99.90;;;;;;5031316;28;20073;-71
2022/10/08 01:53:51;;;;;;;6.55;4.03;;;17.90;99.90;;;;;;5014642;28;20052;-71
2022/10/08 01:56:25;;;;;;;7.75;4.53;;;17.90;99.90;;;;;;5014757;28;20045;-72
2022/10/08 01:59:23;;;;;;;6.90;5.07;;;17.90;99.90;;;;;;5031249;28;20562;-69
2022/10/08 02:02:23;;;;;;;9.13;5.03;;;17.90;99.90;;;;;;5015042;28;20118;-70
2022/10/08 02:04:53;;;;;;;7.20;4.78;;;17.90;99.90;;;;;;5030939;28;20538;-72
2022/10/08 02:07:34;;;;;;;10.10;5.32;;;17.90;99.90;;;;;;5031019;28;20041;-71
2022/10/08 02:10:06;;;;;;;10.27;5.13;;;17.90;99.90;;;;;;5030918;28;20066;-69
2022/10/08 02:12:34;;;;;;;7.35;5.32;;;17.80;99.90;;;;;;5041270;28;20135;-71
2022/10/08 02:15:03;;;;;;;5.00;4.05;;;17.90;99.90;;;;;;5050350;28;20498;-71
2022/10/08 02:18:06;;;;;;;6.80;5.05;;;17.90;99.90;;;;;;5050455;28;20060;-72
2022/10/08 02:20:50;;;;;;;7.35;4.60;;;17.90;99.90;;;;;;5048589;28;20063;-70
2022/10/08 02:23:59;;;;;;;7.22;4.68;;;17.90;99.90;;;;;;5049830;28;20387;-70
2022/10/08 02:26:34;;;;;;;7.25;5.20;;;17.90;99.90;;;;;;5049997;28;20140;-75
2022/10/08 02:29:13;;;;;;;10.05;6.20;;;17.90;99.90;;;;;;5050486;28;20057;-70
2022/10/08 02:31:46;;;;;;;12.43;5.60;;;17.90;99.90;;;;;;5033387;28;20056;-70
2022/10/08 02:34:32;;;;;;;9.70;6.65;;;17.90;99.90;;;;;;5033845;28;20040;-70
2022/10/08 02:37:12;;;;;;;9.63;6.38;;;17.90;99.90;;;;;;5050168;28;20136;-71
2022/10/08 02:39:45;;;;;;;10.27;6.25;;;17.90;99.90;;;;;;5050716;28;20072;-70
2022/10/08 02:42:20;;;;;;;9.52;6.72;;;18.00;99.90;;;;;;5050065;28;20141;-72
2022/10/08 02:45:02;;;;;;;15.13;7.78;;;18.10;99.90;;;;;;5050379;28;20147;-71
2022/10/08 02:47:33;;;;;;;10.40;7.95;;;18.10;99.90;;;;;;5050351;28;20040;-70
2022/10/08 02:50:05;;;;;;;12.38;8.20;;;18.20;99.90;;;;;;5033906;28;20125;-71
2022/10/08 02:52:38;;;;;;;14.80;8.65;;;18.20;99.90;;;;;;5050210;28;20040;-69
2022/10/08 02:55:28;;;;;;;12.27;8.40;;;18.30;99.90;;;;;;5049549;28;20060;-70
2022/10/08 02:58:03;;;;;;;13.68;7.70;;;18.30;99.90;;;;;;5050382;28;20056;-71
2022/10/08 03:01:07;;;;;;;10.85;7.35;;;18.40;99.90;;;;;;5066136;28;20048;-70
2022/10/08 03:03:44;;;;;;;15.90;9.30;;;18.40;99.90;;;;;;5016732;28;20151;-71
2022/10/08 03:06:13;;;;;;;13.55;7.28;;;18.50;99.90;;;;;;5030108;28;20053;-71
2022/10/08 03:08:46;;;;;;;13.00;8.73;;;18.50;99.90;;;;;;4997716;28;20053;-71
2022/10/08 03:11:15;;;;;;;15.25;7.75;;;18.50;99.90;;;;;;5013176;28;20045;-73
2022/10/08 03:13:47;;;;;;;16.83;8.95;;;18.50;99.90;;;;;;5030219;28;20092;-71
2022/10/08 03:16:19;;;;;;;19.88;10.82;;;18.50;99.90;;;;;;5013830;28;20186;-72
2022/10/08 03:18:50;;;;;;;12.02;8.43;;;18.50;99.90;;;;;;5013316;28;20191;-71
2022/10/08 03:21:19;;;;;;;11.15;7.32;;;18.50;99.90;;;;;;5028627;28;20053;-72
2022/10/08 03:23:47;;;;;;;13.02;8.45;;;18.50;99.90;;;;;;5030180;28;20041;-70
2022/10/08 03:26:19;;;;;;;13.90;9.77;;;18.50;99.90;;;;;;5012837;28;20048;-74
2022/10/08 03:28:46;;;;;;;13.27;8.93;;;18.50;99.90;;;;;;5013838;28;20081;-70
2022/10/08 03:31:15;;;;;;;13.32;8.98;;;18.50;99.90;;;;;;5030036;28;20065;-70
2022/10/08 03:33:42;;;;;;;12.85;7.47;;;18.50;99.90;;;;;;5013431;28;20455;-70
2022/10/08 03:36:10;;;;;;;10.23;7.95;;;18.50;99.90;;;;;;5029710;28;20554;-72
2022/10/08 03:38:38;;;;;;;10.25;7.57;;;18.50;99.90;;;;;;5017189;28;20060;-71
2022/10/08 03:41:07;;;;;;;12.23;7.55;;;18.50;99.90;;;;;;5017115;28;20084;-72
2022/10/08 03:43:35;;;;;;;9.05;6.85;;;18.50;99.90;;;;;;5033906;28;20124;-70
2022/10/08 03:46:03;;;;;;;9.95;7.68;;;18.40;99.90;;;;;;5017412;28;20088;-70
2022/10/08 03:48:32;;;;;;;12.25;8.52;;;18.40;99.90;;;;;;5051262;28;20509;-70
2022/10/08 03:51:03;;;;;;;12.57;8.25;;;18.40;99.90;;;;;;5017051;28;20059;-73
2022/10/08 03:53:33;;;;;;;12.10;7.50;;;18.40;99.90;;;;;;5033471;28;20045;-73
2022/10/08 03:56:02;;;;;;;11.52;8.30;;;18.40;99.90;;;;;;5017107;28;20080;-72
2022/10/08 03:58:30;;;;;;;11.52;7.22;;;18.30;99.90;;;;;;5050740;28;20044;-71
2022/10/08 04:01:04;;;;;;;9.93;6.95;;;18.40;99.90;;;;;;5019008;28;20147;-72
2022/10/08 04:03:32;;;;;;;10.07;6.68;;;18.40;99.90;;;;;;5036628;28;20071;-71
2022/10/08 04:06:00;;;;;;;9.48;6.85;;;18.30;99.90;;;;;;5052957;28;20045;-70
2022/10/08 04:08:28;;;;;;;9.85;6.72;;;18.30;99.90;;;;;;5053648;28;20043;-69
2022/10/08 04:10:56;;;;;;;11.25;6.95;;;18.30;99.90;;;;;;5020006;28;20097;-70
2022/10/08 04:13:24;;;;;;;10.35;6.85;;;18.30;99.90;;;;;;5070611;28;20044;-71
2022/10/08 04:15:51;;;;;;;8.40;6.28;;;18.30;99.90;;;;;;5053261;28;20072;-70
2022/10/08 04:18:19;;;;;;;8.57;6.25;;;18.30;99.90;;;;;;5036224;28;20056;-70
2022/10/08 04:20:47;;;;;;;11.77;7.50;;;18.30;99.90;;;;;;5052858;28;20569;-71
2022/10/08 04:23:15;;;;;;;11.05;7.53;;;18.30;99.90;;;;;;5019532;28;20151;-69
2022/10/08 04:25:53;;;;;;;10.05;6.72;;;18.20;99.90;;;;;;5052616;28;20044;-70
2022/10/08 04:28:22;;;;;;;8.85;6.30;;;18.20;99.90;;;;;;5051980;28;20057;-71
2022/10/08 04:31:01;;;;;;;12.30;7.13;;;18.20;99.90;;;;;;5017489;28;20157;-70
2022/10/08 04:33:30;;;;;;;13.00;7.88;;;18.20;99.90;;;;;;5050349;28;20105;-69
2022/10/08 04:35:58;;;;;;;11.25;7.43;;;18.10;99.90;;;;;;5042121;28;20348;-70
2022/10/08 04:38:27;;;;;;;11.48;7.40;;;18.20;99.90;;;;;;5048195;28;20048;-73
2022/10/08 04:41:12;;;;;;;14.10;7.80;;;18.10;99.90;;;;;;5038927;28;20496;-70
2022/10/08 04:43:41;;;;;;;9.80;6.60;;;18.20;99.90;;;;;;5040679;28;20041;-71
2022/10/08 04:46:14;;;;;;;12.35;8.43;;;18.10;99.90;;;;;;5050322;28;20065;-69
2022/10/08 04:48:46;;;;;;;13.77;8.68;;;18.10;99.90;;;;;;5064884;28;20063;-69
2022/10/08 04:51:15;;;;;;;12.82;8.70;;;18.10;99.90;;;;;;5050816;28;20041;-71
2022/10/08 04:53:43;;;;;;;17.17;10.20;;;18.10;99.90;;;;;;5046783;28;20044;-71
2022/10/08 04:56:17;;;;;;;10.55;8.23;;;18.10;99.90;;;;;;5043999;28;20045;-71
2022/10/08 04:58:46;;;;;;;11.63;8.57;;;18.00;99.90;;;;;;5024550;28;20573;-71
2022/10/08 05:01:18;;;;;;;12.52;7.85;;;18.00;99.90;;;;;;5035060;28;20041;-71
2022/10/08 05:03:48;;;;;;;10.05;7.80;;;17.90;99.90;;;;;;5016586;28;20049;-71
2022/10/08 05:06:19;;;;;;;13.38;7.20;;;17.80;99.90;;;;;;5016442;28;20045;-71
2022/10/08 05:08:47;;;;;;;12.25;7.38;;;17.70;99.90;;;;;;5018409;28;20048;-71
2022/10/08 05:11:17;;;;;;;12.63;6.65;;;17.70;99.90;;;;;;5002239;28;20535;-71
2022/10/08 05:13:52;;;;;;;10.95;7.07;;;17.70;99.90;;;;;;5052979;28;20045;-71
2022/10/08 05:16:21;;;;;;;11.15;7.13;;;17.70;99.90;;;;;;5035135;28;20107;-71
2022/10/08 05:18:50;;;;;;;8.73;5.70;;;17.60;99.90;;;;;;5034787;28;20139;-71
2022/10/08 05:21:24;;;;;;;15.55;8.25;;;17.60;99.90;;;;;;5018187;28;20506;-71
2022/10/08 05:24:07;;;;;;;17.63;7.47;;;17.60;99.90;;;;;;5053063;28;20422;-75
2022/10/08 05:26:38;;;;;;;11.07;6.68;;;17.60;99.90;;;;;;5035200;28;20099;-71
2022/10/08 05:29:23;;;;;;;11.90;7.63;;;17.60;99.90;;;;;;5034899;28;20135;-71
2022/10/08 05:31:51;;;;;;;10.63;7.88;;;17.60;99.90;;;;;;5034552;28;20063;-72
2022/10/08 05:34:22;;;;;;;15.05;7.80;;;17.60;99.90;;;;;;5018827;28;20079;-71
2022/10/08 05:36:49;;;;;;;19.70;10.20;;;17.60;99.90;;;;;;5034395;28;20047;-71
2022/10/08 05:39:17;;;;;;;18.10;9.93;;;17.60;99.90;;;;;;5034217;28;20406;-71
2022/10/08 05:41:44;;;;;;;18.73;10.30;;;17.70;99.90;;;;;;5057257;28;20041;-71
2022/10/08 05:44:12;;;;;;;15.85;10.55;;;17.70;99.90;;;;;;5054463;28;20055;-71
2022/10/08 05:46:40;;;;;;;17.40;10.23;;;17.80;99.90;;;;;;5038281;28;20124;-71
2022/10/08 05:49:15;;;;;;;19.25;10.27;;;17.80;99.90;;;;;;5037668;28;20057;-72
2022/10/08 05:51:42;;;;;;;18.43;10.57;;;17.90;99.90;;;;;;5036959;28;20124;-71
2022/10/08 05:54:10;;;;;;;20.58;11.35;;;18.00;99.90;;;;;;5054432;28;20071;-72
2022/10/08 05:56:38;;;;;;;21.55;12.05;;;18.00;99.90;;;;;;5021253;28;20153;-71
2022/10/08 05:59:06;;;;;;;18.67;10.48;;;18.10;99.90;;;;;;5054075;28;20379;-72
2022/10/08 06:01:34;;;;;;;19.80;10.45;;;18.20;99.90;;;;;;5054260;28;20830;-72
2022/10/08 06:04:06;;;;;;;18.73;9.82;;;18.40;99.90;;;;;;5037355;28;20372;-72
2022/10/08 06:06:39;;;;;;;21.77;10.18;;;18.60;99.90;;;;;;5072023;28;20498;-71
2022/10/08 06:09:10;;;;;;;15.10;10.40;;;18.90;99.90;;;;;;5037718;28;20060;-71
2022/10/08 06:11:38;;;;;;;12.73;8.18;;;19.20;99.90;;;;;;5037652;28;20131;-71
2022/10/08 06:14:08;;;;;;;16.75;8.50;;;19.60;99.90;;;;;;5037620;28;20141;-72
2022/10/08 06:16:36;;;;;;;15.43;8.43;;;19.90;99.90;;;;;;5053498;28;20064;-72
2022/10/08 06:19:05;;;;;;;13.02;8.18;;;20.20;99.90;;;;;;5034465;28;20450;-74
2022/10/08 06:21:34;;;;;;;11.57;8.55;;;20.60;99.90;;;;;;5052708;28;20036;-71
2022/10/08 06:24:05;;;;;;;12.68;7.85;;;20.90;99.90;;;;;;5037031;28;20107;-71
2022/10/08 06:26:36;;;;;;;15.55;8.48;;;21.20;99.90;;;;;;5018636;28;20074;-71
2022/10/08 06:29:06;;;;;;;8.73;6.57;;;21.40;99.90;;;;;;5033413;28;20041;-72
2022/10/08 06:31:34;;;;;;;9.68;7.43;;;21.80;99.90;;;;;;5033810;28;20515;-72
2022/10/08 06:34:03;;;;;;;9.77;6.53;;;22.20;99.90;;;;;;5017180;28;20176;-78
2022/10/08 06:36:32;;;;;;;10.27;6.55;;;22.50;99.90;;;;;;5050976;28;20131;-71
2022/10/08 06:39:11;;;;;;;10.02;6.95;;;22.80;99.90;;;;;;5051113;28;20066;-74
2022/10/08 06:41:39;;;;;;;9.63;7.10;;;23.00;99.90;;;;;;5017245;28;20052;-72
2022/10/08 06:44:11;;;;;;;9.00;7.40;;;23.20;99.90;;;;;;5033223;28;20040;-72
2022/10/08 06:46:39;;;;;;;8.95;5.35;;;23.30;99.90;;;;;;5016210;28;20057;-71
2022/10/08 06:49:09;;;;;;;10.15;6.57;;;23.40;99.90;;;;;;5032432;28;20056;-72
2022/10/08 06:51:37;;;;;;;9.10;5.93;;;23.50;99.90;;;;;;5033192;28;20525;-72
2022/10/08 06:54:05;;;;;;;9.15;6.72;;;23.70;99.90;;;;;;5016841;28;20047;-72
2022/10/08 06:56:35;;;;;;;10.48;7.40;;;23.70;99.90;;;;;;5051228;28;20416;-71
2022/10/08 06:59:04;;;;;;;9.63;6.60;;;23.70;99.90;;;;;;5033186;28;20483;-71
2022/10/08 07:01:33;;;;;;;11.80;7.55;;;23.70;99.90;;;;;;5033577;28;20048;-71
2022/10/08 07:04:03;;;;;;;14.35;8.02;;;23.80;99.90;;;;;;5015851;28;20064;-72
2022/10/08 07:06:31;;;;;;;8.38;6.20;;;24.00;99.90;;;;;;5050370;28;20123;-71
2022/10/08 07:09:00;;;;;;;9.80;6.60;;;24.20;99.90;;;;;;5050208;28;20041;-71
2022/10/08 07:11:30;;;;;;;9.15;5.88;;;24.40;99.90;;;;;;5016188;28;20135;-71
2022/10/08 07:13:58;;;;;;;9.75;5.22;;;24.60;99.90;;;;;;5050408;28;20067;-72
2022/10/08 07:16:26;;;;;;;11.35;6.57;;;24.70;99.90;;;;;;5016457;28;20435;-71
2022/10/08 07:18:57;;;;;;;9.15;7.40;;;24.70;99.90;;;;;;4991201;28;20068;-72
2022/10/08 07:21:26;;;;;;;10.93;6.18;;;24.70;99.90;;;;;;5016671;28;20388;-71
2022/10/08 07:23:58;;;;;;;8.57;6.63;;;24.60;99.90;;;;;;5016972;28;20478;-71
2022/10/08 07:26:31;;;;;;;9.25;6.60;;;24.50;99.90;;;;;;5015900;28;20080;-72
2022/10/08 07:29:10;;;;;;;11.35;6.38;;;24.50;99.90;;;;;;5033435;28;20148;-72
2022/10/08 07:31:38;;;;;;;10.32;6.63;;;24.50;99.90;;;;;;5017091;28;20099;-72
2022/10/08 07:34:10;;;;;;;10.82;6.55;;;24.50;99.90;;;;;;5050734;28;20511;-71
2022/10/08 07:36:38;;;;;;;11.52;6.65;;;24.60;99.90;;;;;;5033205;28;20041;-71
2022/10/08 07:39:10;;;;;;;9.23;6.07;;;24.60;99.90;;;;;;5016286;28;20053;-71
2022/10/08 07:41:38;;;;;;;11.68;5.30;;;24.70;99.90;;;;;;5016540;28;20389;-71
2022/10/08 07:44:06;;;;;;;7.15;4.55;;;24.80;99.90;;;;;;5047804;28;20055;-71
2022/10/08 07:46:36;;;;;;;7.72;4.45;;;24.90;99.90;;;;;;5050761;28;20470;-72
2022/10/08 07:49:04;;;;;;;9.43;4.80;;;25.00;99.90;;;;;;5016214;28;20053;-71
2022/10/08 07:51:33;;;;;;;8.00;5.45;;;25.10;99.90;;;;;;5032657;28;20111;-71
2022/10/08 07:54:03;;;;;;;7.05;5.25;;;25.10;99.90;;;;;;5015502;28;20045;-71
2022/10/08 07:56:32;;;;;;;7.43;4.80;;;25.10;99.90;;;;;;5016714;28;20040;-71
2022/10/08 07:59:00;;;;;;;7.95;4.55;;;25.10;99.90;;;;;;5017146;28;20155;-71
2022/10/08 08:01:29;;;;;;;7.95;4.85;;;25.20;99.90;;;;;;5016755;28;20459;-71
2022/10/08 08:04:06;;;;;;;8.48;5.95;;;25.30;99.90;;;;;;5047162;28;20068;-72
2022/10/08 08:06:39;;;;;;;7.07;5.03;;;25.40;99.90;;;;;;5070811;28;20128;-71
2022/10/08 08:09:08;;;;;;;6.15;4.50;;;25.40;99.90;;;;;;5035177;28;20056;-71
2022/10/08 08:11:36;;;;;;;6.35;4.10;;;25.40;99.90;;;;;;5035663;28;20075;-71
2022/10/08 08:14:03;;;;;;;4.90;3.65;;;25.40;99.90;;;;;;5019193;28;20467;-71
2022/10/08 08:16:31;;;;;;;8.75;3.67;;;25.40;99.90;;;;;;5052638;28;20052;-72
2022/10/08 08:19:00;;;;;;;7.97;4.53;;;25.50;99.90;;;;;;5032137;28;20100;-72
2022/10/08 08:21:33;;;;;;;6.18;3.63;;;25.60;99.90;;;;;;5031884;28;20172;-72
2022/10/08 08:24:09;;;;;;;6.25;4.45;;;25.60;99.90;;;;;;5025720;28;20193;-71
2022/10/08 08:26:39;;;;;;;5.30;4.03;;;25.60;99.90;;;;;;5016620;28;20045;-71
2022/10/08 08:29:10;;;;;;;7.60;4.65;;;25.60;99.90;;;;;;5016284;28;20337;-71
2022/10/08 08:31:42;;;;;;;6.53;3.70;;;25.60;99.90;;;;;;5020125;28;20061;-72
2022/10/08 08:34:12;;;;;;;6.72;3.88;;;25.70;99.90;;;;;;5034369;28;20049;-82
2022/10/08 08:36:42;;;;;;;5.45;3.75;;;25.70;99.90;;;;;;5017456;28;20045;-80
2022/10/08 08:39:19;;;;;;;6.90;3.40;;;25.80;99.90;;;;;;5015060;28;20045;-76
2022/10/08 08:42:05;;;;;;;5.72;3.75;;;25.80;99.90;;;;;;5039203;28;20067;-72
2022/10/08 08:44:46;;;;;;;3.78;2.72;;;25.90;99.90;;;;;;5022911;28;20045;-72
2022/10/08 08:47:19;;;;;;;6.00;3.15;;;25.90;99.90;;;;;;5027921;28;20065;-72
2022/10/08 08:49:51;;;;;;;3.50;2.85;;;26.10;99.90;;;;;;5007774;28;20881;-72
2022/10/08 08:52:24;;;;;;;6.13;4.50;;;26.10;99.90;;;;;;5034558;28;20238;-71
2022/10/08 08:54:53;;;;;;;5.95;3.33;;;26.20;99.90;;;;;;5044846;28;20037;-72
2022/10/08 08:57:24;;;;;;;7.85;3.97;;;26.30;99.90;;;;;;5026751;28;20033;-71
2022/10/08 08:59:55;;;;;;;6.53;3.38;;;26.00;99.20;;;;;;5019851;28;20122;-71
2022/10/08 09:02:31;;;;;;;4.28;3.33;;;26.20;99.20;;;;;;5029832;28;20044;-72
2022/10/08 09:05:04;;;;;;;7.32;3.42;;;26.10;99.10;;;;;;5017067;28;20080;-75
2022/10/08 09:07:44;;;;;;;5.45;2.72;;;26.10;98.50;;;;;;5026767;28;20128;-72
2022/10/08 09:10:19;;;;;;;5.18;2.72;;;26.10;98.20;;;;;;5018251;28;20059;-71
2022/10/08 09:12:49;;;;;;;4.13;3.28;;;26.10;98.30;;;;;;5017443;28;20053;-71
2022/10/08 09:15:35;;;;;;;5.20;3.50;;;26.10;98.20;;;;;;5024478;28;20101;-71
2022/10/08 09:18:03;;;;;;;5.40;3.22;;;26.10;97.90;;;;;;5012495;28;20068;-71
2022/10/08 09:20:31;;;;;;;4.97;3.05;;;26.20;97.90;;;;;;5054076;28;20112;-71
2022/10/08 09:23:01;;;;;;;5.75;2.83;;;26.20;97.60;;;;;;5020740;28;20068;-73
2022/10/08 09:25:32;;;;;;;6.05;3.00;;;26.10;97.30;;;;;;5054982;28;20106;-78
2022/10/08 09:28:03;;;;;;;6.97;2.97;;;26.20;97.30;;;;;;5034856;28;20053;-71
2022/10/08 09:30:34;;;;;;;5.90;2.97;;;26.20;97.20;;;;;;5034727;28;20138;-71
2022/10/08 09:33:28;;;;;;;9.20;3.42;;;25.90;97.00;;;;;;5040994;28;20052;-71
2022/10/08 09:35:56;;;;;;;5.07;2.83;;;25.90;97.10;;;;;;5048796;28;20040;-72
2022/10/08 09:38:33;;;;;;;6.63;3.00;;;25.80;96.70;;;;;;5036468;28;20459;-71
2022/10/08 09:41:17;;;;;;;7.32;2.88;;;25.40;96.90;;;;;;5054255;28;20511;-74
2022/10/08 09:44:03;;;;;;;5.05;3.22;;;25.00;96.90;;;;;;5054482;28;20394;-71
2022/10/08 09:46:32;;;;;;;5.38;3.58;;;25.10;96.90;;;;;;5059052;28;20064;-71
2022/10/08 09:49:25;;;;;;;4.25;2.90;;;25.20;97.10;;;;;;5017669;28;20049;-75
2022/10/08 09:51:54;;;;;;;6.35;3.10;;;25.30;97.20;;;;;;5032222;28;20473;-74
2022/10/08 09:54:33;;;;;;;3.92;3.10;;;25.40;97.10;;;;;;5016758;28;20144;-73
2022/10/08 09:57:01;;;;;;;7.22;3.00;;;25.50;97.30;;;;;;5034586;28;20067;-72
2022/10/08 09:59:37;;;;;;;6.70;3.80;;;25.60;97.30;;;;;;5025052;28;20064;-71
2022/10/08 10:02:27;;;;;;;6.30;3.53;;;25.60;97.00;;;;;;5050844;28;20041;-71
2022/10/08 10:04:56;;;;;;;10.43;4.20;;;25.80;97.00;;;;;;5034370;28;20052;-71
2022/10/08 10:07:42;;;;;;;5.15;3.10;;;26.00;97.00;;;;;;5051458;28;20048;-71
2022/10/08 10:10:17;;;;;;;6.25;3.05;;;25.90;96.30;;;;;;5050566;28;20045;-71
2022/10/08 10:12:49;;;;;;;4.47;3.28;;;26.10;96.00;;;;;;5054235;28;20048;-71
2022/10/08 10:15:30;;;;;;;4.72;3.30;;;26.10;95.60;;;;;;5037467;28;20103;-71
2022/10/08 10:18:08;;;;;;;6.82;3.30;;;26.20;95.60;;;;;;5053592;28;20402;-71
2022/10/08 10:20:46;;;;;;;6.30;2.95;;;26.30;95.30;;;;;;5021097;28;20364;-72
2022/10/08 10:23:23;;;;;;;4.28;3.38;;;26.30;95.00;;;;;;5053630;28;20348;-71
2022/10/08 10:25:59;;;;;;;6.53;3.13;;;26.40;94.90;;;;;;5053912;28;20157;-71
2022/10/08 10:28:44;;;;;;;7.90;3.60;;;26.20;94.10;;;;;;5070950;28;20064;-71
2022/10/08 10:31:24;;;;;;;6.22;3.10;;;26.10;94.00;;;;;;5050914;28;20067;-72
2022/10/08 10:34:01;;;;;;;6.95;3.75;;;25.90;93.40;;;;;;5049301;28;20048;-75
2022/10/08 10:36:35;;;;;;;5.80;3.83;;;25.90;93.40;;;;;;5048503;28;20064;-72
2022/10/08 10:39:16;;;;;;;5.80;4.53;;;26.00;94.10;;;;;;5016737;28;20057;-71
2022/10/08 10:42:06;;;;;;;7.15;4.93;;;26.10;93.60;;;;;;5033878;28;20080;-71
2022/10/08 10:44:53;;;;;;;7.07;4.28;;;26.20;93.40;;;;;;5031689;28;20052;-73
2022/10/08 10:47:24;;;;;;;6.65;4.20;;;26.30;93.50;;;;;;5032904;28;20083;-71
2022/10/08 10:49:54;;;;;;;7.13;4.10;;;26.20;93.30;;;;;;5036412;28;20037;-74
2022/10/08 10:52:44;;;;;;;6.38;4.18;;;26.30;93.50;;;;;;5053294;28;20781;-71
2022/10/08 10:55:17;;;;;;;6.97;4.38;;;26.20;93.40;;;;;;5052536;28;20107;-71
2022/10/08 10:57:57;;;;;;;6.80;3.72;;;26.30;93.80;;;;;;5032831;28;20387;-72
2022/10/08 11:01:02;;;;;;;11.05;3.30;;;26.40;93.70;;;;;;5046368;28;20510;-71
2022/10/08 11:04:09;;;;;;;4.10;2.95;;;26.50;93.80;;;;;;4973181;28;20532;-71
2022/10/08 11:07:01;;;;;;;5.53;3.72;;;26.70;93.60;;;;;;5051171;28;20048;-72
2022/10/08 11:09:35;;;;;;;8.20;4.40;;;26.70;92.60;;;;;;5033039;28;20048;-71
2022/10/08 11:12:20;;;;;;;6.75;3.67;;;26.80;92.30;;;;;;5036700;28;20043;-71
2022/10/08 11:15:05;;;;;;;5.57;3.13;;;26.60;93.20;;;;;;5035086;28;20056;-71
2022/10/08 11:18:05;;;;;;;6.03;3.40;;;26.40;93.60;;;;;;5026999;28;20065;-72
2022/10/08 11:20:56;;;;;;;4.75;3.38;;;26.30;93.50;;;;;;5025382;28;20296;-72
2022/10/08 11:23:53;;;;;;;7.30;4.43;;;26.10;93.60;;;;;;5052200;28;20044;-71
2022/10/08 11:26:27;;;;;;;;;;;25.80;92.80;;;;;;5044243;28;20040;-72
2022/10/08 11:29:15;;;;;;;4.93;3.13;;;25.80;92.90;;;;;;5070305;28;20020;-71
2022/10/08 11:31:49;;;;;;;9.93;3.42;;;25.80;93.50;;;;;;5025835;28;20659;-74
2022/10/08 11:34:26;;;;;;;6.07;3.15;;;25.70;93.50;;;;;;5051638;28;20049;-71
2022/10/08 11:37:18;;;;;;;6.90;3.60;;;25.80;93.30;;;;;;5050496;28;20044;-72
2022/10/08 11:40:01;;;;;;;4.13;3.00;;;25.80;93.10;;;;;;5020101;28;20094;-71
2022/10/08 11:42:42;;;;;;;6.93;3.70;;;25.80;93.50;;;;;;5059562;28;20067;-71
2022/10/08 11:45:13;;;;;;;6.72;3.60;;;25.80;93.50;;;;;;5042077;28;20047;-72
2022/10/08 11:47:41;;;;;;;5.45;3.08;;;25.80;93.60;;;;;;5036088;28;20442;-75
2022/10/08 11:50:30;;;;;;;6.55;3.28;;;25.70;93.60;;;;;;5035936;28;20044;-71
2022/10/08 11:53:11;;;;;;;4.82;3.03;;;25.50;93.90;;;;;;5051845;28;20044;-71
2022/10/08 11:55:49;;;;;;;3.33;2.65;;;25.40;94.00;;;;;;5014388;28;20487;-72
2022/10/08 11:58:30;;;;;;;7.55;3.30;;;25.50;94.20;;;;;;5069011;28;20048;-72
2022/10/08 12:01:06;;;;;;;5.05;2.58;;;25.60;94.40;;;;;;5039633;28;20045;-71
2022/10/08 12:03:36;;;;;;;;;;;25.70;94.40;;;;;;5046730;28;20102;-72
2022/10/08 12:06:28;;;;;;;7.75;3.80;;;25.80;94.20;;;;;;5055704;28;19939;-71
2022/10/08 12:08:58;;;;;;;5.47;2.70;;;25.80;93.50;;;;;;5033576;28;20088;-71
2022/10/08 12:11:28;;;;;;;4.57;2.65;;;25.90;93.50;;;;;;5051211;28;20040;-72
2022/10/08 12:16:46;;;;;;;7.30;3.55;;;26.00;96.10;;;;;;5042720;28;20402;-72
2022/10/08 12:19:36;;;;;;;5.22;4.00;;;25.90;97.10;;;;;;5052104;28;20414;-71
2022/10/08 12:22:24;;;;;;;5.90;3.17;;;25.80;97.30;;;;;;5022308;28;20077;-75
2022/10/08 12:24:57;;;;;;;6.20;2.95;;;25.80;97.30;;;;;;5019014;28;20099;-72
2022/10/08 12:27:34;;;;;;;6.53;3.70;;;25.80;97.40;;;;;;5036671;28;20084;-72
2022/10/08 12:30:15;;;;;;;5.68;3.95;;;25.60;97.90;;;;;;5062606;28;20067;-71
2022/10/08 12:32:43;;;;;;;4.88;3.30;;;25.60;98.20;;;;;;5073585;28;20041;-71
2022/10/08 12:35:23;;;;;;;4.80;3.72;;;25.40;98.30;;;;;;5038701;28;20450;-71
2022/10/08 12:38:33;;;;;;;5.28;3.05;;;25.30;98.60;;;;;;5040969;28;20188;-70
2022/10/08 12:41:28;;;;;;;6.15;3.08;;;25.20;99.10;;;;;;4955783;28;20047;-73
2022/10/08 12:44:11;;;;;;;6.30;3.20;;;25.10;99.30;;;;;;5068380;28;20132;-71
2022/10/08 12:47:08;;;;;;;5.93;3.45;;;25.10;99.40;;;;;;5028603;28;20045;-71
2022/10/08 12:49:45;;;;;;;3.88;3.20;;;25.00;99.40;;;;;;5035400;28;20136;-71
2022/10/08 12:52:15;;;;;;;5.55;3.33;;;24.90;99.90;;;;;;5069193;28;20044;-71
2022/10/08 12:54:53;;;;;;;4.45;3.05;;;24.70;99.90;;;;;;5053847;28;20368;-72
2022/10/08 12:57:41;;;;;;;19.45;3.42;;;24.70;99.90;;;;;;5055344;28;20049;-70
2022/10/08 13:00:24;;;;;;;5.20;3.40;;;24.40;99.90;;;;;;5019162;28;20443;-72
2022/10/08 13:03:12;;;;;;;6.55;4.03;;;24.20;99.90;;;;;;5022197;28;20121;-72
2022/10/08 13:05:42;;;;;;;6.50;3.60;;;24.20;99.90;;;;;;5024059;28;20567;-71
2022/10/08 13:08:31;;;;;;;4.70;3.53;;;24.10;99.90;;;;;;5055231;28;20072;-71
2022/10/08 13:11:08;;;;;;;4.88;3.67;;;24.20;99.90;;;;;;5054236;28;20041;-70
2022/10/08 13:13:39;;;;;;;5.80;3.83;;;24.10;99.90;;;;;;5019606;28;20072;-70
2022/10/08 13:16:12;;;;;;;7.43;4.50;;;24.10;99.90;;;;;;5039310;28;20073;-70
2022/10/08 13:18:47;;;;;;;5.90;3.60;;;24.00;99.90;;;;;;5014011;28;20057;-74
2022/10/08 13:21:35;;;;;;;5.07;3.15;;;23.90;99.90;;;;;;5040937;28;20744;-71
2022/10/08 13:24:24;;;;;;;7.28;3.70;;;23.80;99.90;;;;;;5018688;28;20056;-71
2022/10/08 13:26:54;;;;;;;6.32;3.55;;;23.80;99.90;;;;;;5048223;28;20047;-71
2022/10/08 13:29:25;;;;;;;6.25;3.67;;;23.70;99.90;;;;;;5054241;28;20045;-70